Time;durP1;ratioP1;P1;durP2;ratioP2;P2;SDS_P1;SDS_P2;PMS_P1;PMS_P2;Temp;Humidity;BMP_temperature;BMP_pressure;BME280_temperature;BME280_humidity;BME280_pressure;Samples;Min_cycle;Max_cycle;Signal;HPM_P1;HPM_P2
2023/11/27 00:01:33;;;;;;;;;;;;;;;20.21;17.61;97491.06;5089601;28;19955;-88
2023/11/27 00:03:59;;;;;;;;;;;;;;;19.69;17.62;97490.66;5087796;28;20642;-88
2023/11/27 00:06:25;;;;;;;;;;;;;;;20.39;16.84;97488.81;5090080;28;19928;-87
2023/11/27 00:08:51;;;;;;;;;;;;;;;19.86;17.30;97487.59;5091123;28;19943;-88
2023/11/27 00:11:17;;;;;;;;;;;;;;;18.74;18.45;97491.75;5094741;28;19962;-88
2023/11/27 00:13:43;;;;;;;;;;;;;;;19.44;17.63;97490.94;5096563;28;19923;-85
2023/11/27 00:16:09;;;;;;;;;;;;;;;19.13;17.94;97487.34;5068216;28;20272;-88
2023/11/27 00:18:35;;;;;;;;;;;;;;;19.54;18.63;97486.47;5089224;28;20372;-87
2023/11/27 00:21:02;;;;;;;;;;;;;;;19.87;17.37;97488.38;5093552;28;19920;-86
2023/11/27 00:23:28;;;;;;;;;;;;;;;20.31;17.07;97490.13;5094677;28;19928;-88
2023/11/27 00:25:55;;;;;;;;;;;;;;;20.30;16.99;97496.94;5093955;28;19973;-87
2023/11/27 00:28:22;;;;;;;;;;;;;;;21.16;16.40;97489.44;5092712;28;20292;-88
2023/11/27 00:30:48;;;;;;;;;;;;;;;21.14;16.21;97491.88;5082152;28;20384;-87
2023/11/27 00:33:14;;;;;;;;;;;;;;;21.12;16.44;97491.53;5083628;28;19924;-86
2023/11/27 00:35:40;;;;;;;;;;;;;;;20.85;16.79;97485.22;5081465;28;20298;-87
2023/11/27 00:38:07;;;;;;;;;;;;;;;19.85;17.08;97483.25;5093764;28;19932;-87
2023/11/27 00:40:33;;;;;;;;;;;;;;;19.52;17.95;97492.44;5099144;28;19916;-87
2023/11/27 00:42:59;;;;;;;;;;;;;;;19.23;17.69;97491.19;5099520;28;19956;-86
2023/11/27 00:45:25;;;;;;;;;;;;;;;19.32;17.84;97483.16;5093003;28;19924;-86
2023/11/27 00:47:51;;;;;;;;;;;;;;;19.13;17.70;97487.34;5077207;28;20437;-87
2023/11/27 00:50:17;;;;;;;;;;;;;;;19.47;17.63;97484.56;5093889;28;19927;-87
2023/11/27 00:52:43;;;;;;;;;;;;;;;19.38;17.47;97481.50;5083316;28;20007;-87
2023/11/27 00:55:10;;;;;;;;;;;;;;;19.89;17.18;97472.84;5087773;28;19920;-86
2023/11/27 00:57:36;;;;;;;;;;;;;;;19.81;17.37;97468.56;5093188;28;19965;-87
2023/11/27 01:00:04;;;;;;;;;;;;;;;20.08;16.97;97465.78;5095925;28;19923;-87
2023/11/27 01:02:30;;;;;;;;;;;;;;;20.33;16.90;97468.19;5092542;28;20333;-87
2023/11/27 01:04:57;;;;;;;;;;;;;;;20.04;16.80;97462.28;5076400;28;19924;-87
2023/11/27 01:07:24;;;;;;;;;;;;;;;20.29;16.86;97464.69;5092063;28;19920;-87
2023/11/27 01:09:51;;;;;;;;;;;;;;;20.67;16.50;97457.66;5093380;28;19920;-88
2023/11/27 01:12:17;;;;;;;;;;;;;;;20.07;16.93;97443.91;5097712;28;20435;-88
2023/11/27 01:14:43;;;;;;;;;;;;;;;20.54;16.78;97439.94;5087765;28;19920;-88
2023/11/27 01:17:09;;;;;;;;;;;;;;;21.31;16.25;97446.03;5090544;28;19924;-88
2023/11/27 01:19:35;;;;;;;;;;;;;;;21.19;16.15;97430.72;5095129;28;19927;-88
2023/11/27 01:22:01;;;;;;;;;;;;;;;21.53;16.14;97435.22;5086697;28;20011;-87
2023/11/27 01:24:28;;;;;;;;;;;;;;;21.85;15.71;97435.31;5095324;28;19984;-87
2023/11/27 01:26:54;;;;;;;;;;;;;;;21.87;15.72;97428.06;5089213;28;20407;-87
2023/11/27 01:29:21;;;;;;;;;;;;;;;22.11;15.41;97425.91;5086773;28;19944;-87
2023/11/27 01:31:50;;;;;;;;;;;;;;;21.96;15.51;97417.06;5081144;28;19920;-87
2023/11/27 01:34:16;;;;;;;;;;;;;;;22.07;15.56;97418.81;5086463;28;19916;-87
2023/11/27 01:36:43;;;;;;;;;;;;;;;22.30;15.46;97422.22;5094557;28;19924;-87
2023/11/27 01:39:09;;;;;;;;;;;;;;;22.54;15.23;97415.19;5095026;28;19931;-87
2023/11/27 01:41:35;;;;;;;;;;;;;;;22.40;15.29;97418.38;5097950;28;19920;-87
2023/11/27 01:44:02;;;;;;;;;;;;;;;22.21;15.57;97415.69;5087301;28;20008;-87
2023/11/27 01:46:29;;;;;;;;;;;;;;;22.18;15.57;97414.53;5079455;28;20391;-87
2023/11/27 01:48:56;;;;;;;;;;;;;;;22.30;15.42;97402.66;5089032;28;19927;-87
2023/11/27 01:51:23;;;;;;;;;;;;;;;22.13;15.46;97394.69;5088972;28;19951;-87
2023/11/27 01:53:52;;;;;;;;;;;;;;;21.92;15.68;97396.00;5086621;28;19924;-87
2023/11/27 01:56:19;;;;;;;;;;;;;;;22.23;15.55;97400.03;5085594;28;19921;-88
2023/11/27 01:58:48;;;;;;;;;;;;;;;22.10;15.49;97403.97;5083287;28;19916;-88
2023/11/27 02:01:14;;;;;;;;;;;;;;;21.95;15.73;97400.75;5085137;28;20411;-87
2023/11/27 02:03:40;;;;;;;;;;;;;;;21.85;15.81;97393.38;5092823;28;20287;-88
2023/11/27 02:06:07;;;;;;;;;;;;;;;22.00;15.65;97389.84;5088644;28;20006;-87
2023/11/27 02:08:33;;;;;;;;;;;;;;;22.12;15.55;97390.34;5081075;28;19983;-88
2023/11/27 02:10:59;;;;;;;;;;;;;;;22.23;15.26;97379.69;5085574;28;19927;-88
2023/11/27 02:13:25;;;;;;;;;;;;;;;22.46;15.29;97383.06;5087043;28;19959;-87
2023/11/27 02:15:52;;;;;;;;;;;;;;;22.45;14.97;97372.31;5063218;28;19920;-87
2023/11/27 02:18:19;;;;;;;;;;;;;;;22.38;14.97;97375.31;5081189;28;19920;-88
2023/11/27 02:20:45;;;;;;;;;;;;;;;22.34;15.05;97375.38;5071999;28;19975;-88
2023/11/27 02:23:15;;;;;;;;;;;;;;;22.40;15.06;97370.06;5089201;28;19928;-88
2023/11/27 02:25:41;;;;;;;;;;;;;;;22.41;15.06;97368.81;5088518;28;19920;-88
2023/11/27 02:28:07;;;;;;;;;;;;;;;22.24;15.02;97362.44;5092838;28;19920;-87
2023/11/27 02:30:34;;;;;;;;;;;;;;;22.03;14.98;97363.03;5083144;28;20268;-87
2023/11/27 02:33:01;;;;;;;;;;;;;;;21.82;15.18;97369.09;5086121;28;19947;-88
2023/11/27 02:35:27;;;;;;;;;;;;;;;21.59;15.52;97367.22;5063066;28;20007;-87
2023/11/27 02:37:53;;;;;;;;;;;;;;;21.23;15.60;97366.47;5076277;28;19928;-88
2023/11/27 02:40:20;;;;;;;;;;;;;;;20.98;16.19;97374.56;5087839;28;19927;-87
2023/11/27 02:42:46;;;;;;;;;;;;;;;20.35;16.53;97365.44;5080075;28;20025;-87
2023/11/27 02:45:12;;;;;;;;;;;;;;;20.45;16.57;97367.22;5069730;28;20384;-86
2023/11/27 02:47:39;;;;;;;;;;;;;;;20.75;16.22;97358.66;5082214;28;20375;-87
2023/11/27 02:50:05;;;;;;;;;;;;;;;20.95;15.81;97353.06;5088844;28;20050;-87
2023/11/27 02:52:31;;;;;;;;;;;;;;;21.30;15.46;97366.31;5089718;28;19924;-87
2023/11/27 02:54:58;;;;;;;;;;;;;;;21.27;15.63;97362.38;5093619;28;19920;-87
2023/11/27 02:57:24;;;;;;;;;;;;;;;21.21;15.67;97369.66;5084360;28;19966;-87
2023/11/27 02:59:50;;;;;;;;;;;;;;;21.37;15.47;97368.16;5075915;28;20279;-87
2023/11/27 03:02:16;;;;;;;;;;;;;;;21.60;15.46;97368.81;5092985;28;19927;-88
2023/11/27 03:04:43;;;;;;;;;;;;;;;21.55;15.62;97357.34;5091635;28;19920;-87
2023/11/27 03:07:09;;;;;;;;;;;;;;;21.82;15.21;97353.09;5093314;28;19920;-87
2023/11/27 03:09:37;;;;;;;;;;;;;;;22.01;15.21;97357.84;5081571;28;19924;-87
2023/11/27 03:12:03;;;;;;;;;;;;;;;21.99;15.31;97345.53;5073760;28;20367;-87
2023/11/27 03:14:29;;;;;;;;;;;;;;;22.01;15.20;97338.28;5092059;28;20381;-87
2023/11/27 03:16:56;;;;;;;;;;;;;;;22.08;15.07;97339.34;5083073;28;20437;-87
2023/11/27 03:19:22;;;;;;;;;;;;;;;21.92;15.14;97329.72;5075065;28;19917;-86
2023/11/27 03:21:49;;;;;;;;;;;;;;;21.49;15.56;97337.56;5091725;28;20440;-86
2023/11/27 03:24:15;;;;;;;;;;;;;;;21.70;15.42;97333.47;5093434;28;19935;-86
2023/11/27 03:26:41;;;;;;;;;;;;;;;21.45;15.36;97336.06;5083777;28;20387;-86
2023/11/27 03:29:07;;;;;;;;;;;;;;;21.32;15.65;97325.56;5092908;28;19916;-86
2023/11/27 03:31:33;;;;;;;;;;;;;;;21.76;15.49;97331.72;5085042;28;20015;-86
2023/11/27 03:33:59;;;;;;;;;;;;;;;21.90;15.22;97314.63;5093137;28;20303;-87
2023/11/27 03:36:25;;;;;;;;;;;;;;;22.14;15.35;97316.00;5092879;28;19981;-87
2023/11/27 03:38:51;;;;;;;;;;;;;;;22.38;14.73;97310.97;5085242;28;20367;-86
2023/11/27 03:41:18;;;;;;;;;;;;;;;22.35;14.88;97311.84;5095381;28;19959;-87
2023/11/27 03:43:44;;;;;;;;;;;;;;;22.30;15.16;97301.97;5096057;28;19973;-86
2023/11/27 03:46:10;;;;;;;;;;;;;;;22.55;14.97;97307.66;5090601;28;19928;-86
2023/11/27 03:48:37;;;;;;;;;;;;;;;22.45;14.92;97307.97;5096844;28;19927;-86
2023/11/27 03:51:05;;;;;;;;;;;;;;;22.16;15.02;97307.16;5094671;28;19924;-86
2023/11/27 03:53:31;;;;;;;;;;;;;;;22.06;15.20;97308.22;5097023;28;19968;-86
2023/11/27 03:55:57;;;;;;;;;;;;;;;21.86;15.25;97308.34;5078636;28;19916;-86
2023/11/27 03:58:23;;;;;;;;;;;;;;;21.81;15.43;97312.41;5104149;28;19924;-86
2023/11/27 04:00:49;;;;;;;;;;;;;;;21.51;15.80;97314.75;5100965;28;19932;-86
2023/11/27 04:03:15;;;;;;;;;;;;;;;21.49;15.58;97320.00;5100794;28;19916;-87
2023/11/27 04:05:41;;;;;;;;;;;;;;;21.88;15.53;97308.69;5097437;28;19920;-86
2023/11/27 04:08:08;;;;;;;;;;;;;;;22.34;14.86;97315.84;5097384;28;19955;-87
2023/11/27 04:10:34;;;;;;;;;;;;;;;22.31;15.15;97308.38;5086527;28;19927;-86
2023/11/27 04:13:00;;;;;;;;;;;;;;;22.60;15.09;97309.97;5096489;28;20022;-86
2023/11/27 04:15:27;;;;;;;;;;;;;;;22.79;14.79;97299.03;5096466;28;19931;-87
2023/11/27 04:17:54;;;;;;;;;;;;;;;22.83;14.88;97294.13;5088280;28;19935;-86
2023/11/27 04:20:20;;;;;;;;;;;;;;;22.13;15.27;97305.25;5082007;28;19920;-86
2023/11/27 04:22:46;;;;;;;;;;;;;;;21.99;15.69;97309.19;5091510;28;19947;-86
2023/11/27 04:25:12;;;;;;;;;;;;;;;22.45;15.20;97305.94;5082538;28;19920;-87
2023/11/27 04:27:39;;;;;;;;;;;;;;;22.74;15.02;97321.97;5096765;28;19927;-87
2023/11/27 04:30:05;;;;;;;;;;;;;;;22.28;15.13;97309.25;5096772;28;20399;-87
2023/11/27 04:32:32;;;;;;;;;;;;;;;22.25;15.30;97315.69;5096065;28;19920;-86
2023/11/27 04:34:58;;;;;;;;;;;;;;;22.61;15.00;97319.91;5092870;28;20261;-87
2023/11/27 04:37:24;;;;;;;;;;;;;;;22.91;15.17;97307.47;5095272;28;20014;-86
2023/11/27 04:39:51;;;;;;;;;;;;;;;23.04;14.86;97301.88;5093841;28;20012;-87
2023/11/27 04:42:18;;;;;;;;;;;;;;;23.13;14.82;97300.00;5095665;28;19926;-86
2023/11/27 04:44:44;;;;;;;;;;;;;;;23.28;15.05;97309.53;5096431;28;19920;-86
2023/11/27 04:47:10;;;;;;;;;;;;;;;23.35;14.78;97309.34;5089614;28;19919;-87
2023/11/27 04:49:37;;;;;;;;;;;;;;;23.45;15.04;97304.66;5095920;28;19943;-85
2023/11/27 04:52:04;;;;;;;;;;;;;;;23.43;14.72;97307.13;5089204;28;20300;-87
2023/11/27 04:54:30;;;;;;;;;;;;;;;23.45;14.77;97298.25;5095301;28;20031;-87
2023/11/27 04:56:56;;;;;;;;;;;;;;;23.19;14.98;97300.22;5088973;28;19928;-86
2023/11/27 04:59:22;;;;;;;;;;;;;;;23.02;15.13;97299.53;5090918;28;19919;-87
2023/11/27 05:01:49;;;;;;;;;;;;;;;22.81;15.28;97310.56;5090500;28;19966;-87
2023/11/27 05:04:17;;;;;;;;;;;;;;;22.52;15.42;97310.59;5091388;28;19924;-87
2023/11/27 05:06:44;;;;;;;;;;;;;;;22.16;16.02;97313.53;5091921;28;19925;-87
2023/11/27 05:09:12;;;;;;;;;;;;;;;22.46;15.56;97303.94;5086136;28;20340;-86
2023/11/27 05:11:38;;;;;;;;;;;;;;;22.55;15.62;97307.66;5089992;28;20003;-86
2023/11/27 05:14:05;;;;;;;;;;;;;;;22.42;15.98;97306.84;5084296;28;19928;-86
2023/11/27 05:16:31;;;;;;;;;;;;;;;22.57;15.93;97302.41;5093206;28;19955;-87
2023/11/27 05:18:57;;;;;;;;;;;;;;;22.45;16.24;97300.34;5088283;28;19940;-87
2023/11/27 05:21:23;;;;;;;;;;;;;;;22.42;16.04;97306.84;5088185;28;19920;-88
2023/11/27 05:23:49;;;;;;;;;;;;;;;22.44;16.22;97303.59;5079450;28;19991;-87
2023/11/27 05:26:16;;;;;;;;;;;;;;;22.29;16.22;97302.41;5087951;28;20380;-86
2023/11/27 05:28:42;;;;;;;;;;;;;;;22.01;16.63;97303.94;5090228;28;20019;-89
2023/11/27 05:31:09;;;;;;;;;;;;;;;22.18;16.85;97307.50;5088162;28;19920;-88
2023/11/27 05:33:35;;;;;;;;;;;;;;;22.42;16.63;97304.06;5093098;28;19916;-89
2023/11/27 05:36:02;;;;;;;;;;;;;;;22.03;16.96;97307.88;5086455;28;19977;-89
2023/11/27 05:38:28;;;;;;;;;;;;;;;21.74;17.04;97303.41;5084060;28;20388;-89
2023/11/27 05:40:59;;;;;;;;;;;;;;;21.82;17.24;97302.78;5085503;28;20395;-87
2023/11/27 05:43:27;;;;;;;;;;;;;;;22.18;16.91;97299.91;5075204;28;19977;-88
2023/11/27 05:45:53;;;;;;;;;;;;;;;22.48;16.47;97305.06;5086417;28;19955;-89
2023/11/27 05:48:19;;;;;;;;;;;;;;;22.62;16.36;97306.72;5081187;28;19920;-89
2023/11/27 05:50:46;;;;;;;;;;;;;;;22.62;16.30;97309.50;5083607;28;19971;-89
2023/11/27 05:53:12;;;;;;;;;;;;;;;22.68;16.47;97305.72;5086789;28;20042;-88
2023/11/27 05:55:39;;;;;;;;;;;;;;;22.47;16.44;97311.13;5082684;28;20434;-87
2023/11/27 05:58:06;;;;;;;;;;;;;;;22.66;16.57;97308.19;5087987;28;19920;-86
2023/11/27 06:00:32;;;;;;;;;;;;;;;22.97;16.20;97314.09;5092188;28;19917;-86
2023/11/27 06:02:58;;;;;;;;;;;;;;;23.20;16.49;97304.59;5092350;28;19923;-86
2023/11/27 06:05:25;;;;;;;;;;;;;;;23.31;15.99;97303.03;5093972;28;20434;-86
2023/11/27 06:07:51;;;;;;;;;;;;;;;23.44;16.07;97302.28;5090674;28;20341;-86
2023/11/27 06:10:17;;;;;;;;;;;;;;;23.49;15.84;97310.13;5093995;28;20022;-86
2023/11/27 06:12:43;;;;;;;;;;;;;;;23.53;16.00;97314.38;5094976;28;20299;-85
2023/11/27 06:15:14;;;;;;;;;;;;;;;23.35;16.39;97314.97;5094971;28;20065;-86
2023/11/27 06:17:40;;;;;;;;;;;;;;;23.34;16.20;97306.94;5076205;28;19924;-86
2023/11/27 06:20:09;;;;;;;;;;;;;;;23.36;16.18;97305.31;5093280;28;19962;-86
2023/11/27 06:22:36;;;;;;;;;;;;;;;23.45;16.04;97318.66;5090564;28;19924;-86
2023/11/27 06:25:02;;;;;;;;;;;;;;;23.54;16.14;97315.97;5094600;28;19916;-87
2023/11/27 06:27:28;;;;;;;;;;;;;;;23.61;16.19;97320.56;5093167;28;20427;-86
2023/11/27 06:29:54;;;;;;;;;;;;;;;23.58;16.37;97311.03;5094151;28;19923;-86
2023/11/27 06:32:20;;;;;;;;;;;;;;;23.61;15.97;97323.34;5094739;28;19916;-86
2023/11/27 06:34:47;;;;;;;;;;;;;;;23.45;16.38;97324.25;5091467;28;19945;-86
2023/11/27 06:37:13;;;;;;;;;;;;;;;23.21;16.52;97328.56;5092089;28;20429;-86
2023/11/27 06:39:39;;;;;;;;;;;;;;;23.33;16.40;97325.00;5093579;28;20035;-86
2023/11/27 06:42:05;;;;;;;;;;;;;;;23.54;16.36;97329.97;5091197;28;20431;-86
2023/11/27 06:44:32;;;;;;;;;;;;;;;23.60;16.12;97327.38;5082250;28;19955;-87
2023/11/27 06:46:59;;;;;;;;;;;;;;;23.60;16.15;97325.38;5090674;28;19927;-86
2023/11/27 06:49:25;;;;;;;;;;;;;;;23.65;16.28;97332.44;5085478;28;19916;-87
2023/11/27 06:51:51;;;;;;;;;;;;;;;23.66;16.26;97326.38;5092770;28;19920;-86
2023/11/27 06:54:17;;;;;;;;;;;;;;;23.66;16.12;97311.59;5086191;28;19959;-86
2023/11/27 06:56:43;;;;;;;;;;;;;;;23.68;15.94;97312.72;5087193;28;19947;-86
2023/11/27 06:59:09;;;;;;;;;;;;;;;23.60;16.44;97310.56;5077939;28;19924;-86
2023/11/27 07:01:39;;;;;;;;;;;;;;;23.21;16.64;97317.38;5091740;28;20466;-86
2023/11/27 07:04:05;;;;;;;;;;;;;;;23.08;16.87;97322.19;5092803;28;19928;-86
2023/11/27 07:06:31;;;;;;;;;;;;;;;23.17;16.82;97323.09;5091107;28;20008;-86
2023/11/27 07:08:59;;;;;;;;;;;;;;;23.19;16.96;97317.03;5091856;28;20376;-87
2023/11/27 07:11:25;;;;;;;;;;;;;;;23.26;16.96;97322.41;5075236;28;20288;-86
2023/11/27 07:13:51;;;;;;;;;;;;;;;23.45;16.64;97310.25;5092461;28;19927;-85
2023/11/27 07:16:17;;;;;;;;;;;;;;;23.36;16.40;97310.16;5092125;28;20024;-86
2023/11/27 07:18:46;;;;;;;;;;;;;;;22.96;17.12;97323.72;5092543;28;19920;-86
2023/11/27 07:21:12;;;;;;;;;;;;;;;22.78;17.47;97323.44;5090705;28;19920;-86
2023/11/27 07:23:41;;;;;;;;;;;;;;;22.70;17.18;97324.88;5098061;28;20015;-86
2023/11/27 07:26:08;;;;;;;;;;;;;;;22.47;17.50;97325.91;5076396;28;20418;-86
2023/11/27 07:28:34;;;;;;;;;;;;;;;22.74;17.39;97324.75;5074213;28;19970;-86
2023/11/27 07:31:02;;;;;;;;;;;;;;;22.98;16.94;97326.06;5073748;28;20003;-85
2023/11/27 07:33:28;;;;;;;;;;;;;;;22.56;17.49;97325.25;5087912;28;20269;-86
2023/11/27 07:35:54;;;;;;;;;;;;;;;22.69;17.39;97331.69;5093002;28;19924;-86
2023/11/27 07:38:20;;;;;;;;;;;;;;;22.99;17.17;97328.41;5093739;28;19924;-86
2023/11/27 07:40:46;;;;;;;;;;;;;;;23.11;17.07;97330.47;5093562;28;19915;-85
2023/11/27 07:43:13;;;;;;;;;;;;;;;22.70;17.31;97330.47;5076550;28;20264;-86
2023/11/27 07:45:39;;;;;;;;;;;;;;;22.45;17.55;97330.34;5093500;28;19963;-86
2023/11/27 07:48:05;;;;;;;;;;;;;;;22.35;17.72;97334.22;5093833;28;19916;-86
2023/11/27 07:50:32;;;;;;;;;;;;;;;21.91;18.35;97330.19;5093494;28;19920;-86
2023/11/27 07:52:58;;;;;;;;;;;;;;;21.65;18.51;97331.19;5076216;28;19927;-86
2023/11/27 07:55:24;;;;;;;;;;;;;;;22.15;18.07;97334.31;5073459;28;19967;-85
2023/11/27 07:57:50;;;;;;;;;;;;;;;22.59;17.70;97339.13;5079137;28;19924;-86
2023/11/27 08:00:16;;;;;;;;;;;;;;;22.56;17.87;97334.44;5111263;28;19916;-85
2023/11/27 08:02:43;;;;;;;;;;;;;;;22.74;17.93;97338.75;5109903;28;19935;-86
2023/11/27 08:05:09;;;;;;;;;;;;;;;22.65;17.56;97337.41;5075461;28;19924;-86
2023/11/27 08:07:36;;;;;;;;;;;;;;;22.49;17.95;97334.63;5075236;28;19965;-86
2023/11/27 08:10:03;;;;;;;;;;;;;;;22.78;17.53;97331.06;5075286;28;19962;-86
2023/11/27 08:12:29;;;;;;;;;;;;;;;23.16;17.56;97329.91;5093018;28;19924;-86
2023/11/27 08:14:55;;;;;;;;;;;;;;;23.43;17.30;97325.94;5091244;28;20422;-87
2023/11/27 08:17:21;;;;;;;;;;;;;;;23.45;17.15;97329.88;5090266;28;19926;-86
2023/11/27 08:19:48;;;;;;;;;;;;;;;23.24;17.45;97342.47;5091793;28;20390;-86
2023/11/27 08:22:15;;;;;;;;;;;;;;;23.41;17.61;97328.41;5090513;28;20015;-86
2023/11/27 08:24:41;;;;;;;;;;;;;;;23.65;17.32;97335.22;5091012;28;19948;-87
2023/11/27 08:27:07;;;;;;;;;;;;;;;23.66;17.24;97343.22;5090264;28;19927;-86
2023/11/27 08:29:33;;;;;;;;;;;;;;;23.17;17.71;97336.31;5076250;28;20295;-86
2023/11/27 08:32:00;;;;;;;;;;;;;;;22.69;17.99;97335.28;5092992;28;19931;-86
2023/11/27 08:34:28;;;;;;;;;;;;;;;22.27;18.19;97332.81;5092251;28;19973;-86
2023/11/27 08:36:57;;;;;;;;;;;;;;;21.71;18.82;97338.59;5093574;28;20339;-86
2023/11/27 08:39:24;;;;;;;;;;;;;;;21.38;19.21;97348.16;5094059;28;19970;-86
2023/11/27 08:41:51;;;;;;;;;;;;;;;21.46;19.03;97346.78;5093873;28;19924;-86
2023/11/27 08:44:18;;;;;;;;;;;;;;;21.02;19.44;97350.13;5093646;28;19935;-86
2023/11/27 08:46:46;;;;;;;;;;;;;;;20.97;19.31;97353.44;5093655;28;19923;-86
2023/11/27 08:49:12;;;;;;;;;;;;;;;20.93;19.52;97350.72;5091869;28;19920;-86
2023/11/27 08:51:43;;;;;;;;;;;;;;;20.67;19.87;97351.66;5092594;28;20101;-86
2023/11/27 08:54:09;;;;;;;;;;;;;;;20.70;20.11;97353.56;5093342;28;20000;-86
2023/11/27 08:56:40;;;;;;;;;;;;;;;20.55;20.00;97344.72;5093083;28;19942;-86
2023/11/27 08:59:07;;;;;;;;;;;;;;;20.59;20.38;97344.63;5096134;28;19927;-86
2023/11/27 09:01:33;;;;;;;;;;;;;;;20.60;20.20;97343.44;5093040;28;19919;-86
2023/11/27 09:03:59;;;;;;;;;;;;;;;21.47;19.78;97328.03;5093298;28;19916;-86
2023/11/27 09:06:25;;;;;;;;;;;;;;;20.95;19.62;97328.75;5090823;28;19939;-86
2023/11/27 09:08:52;;;;;;;;;;;;;;;18.58;23.30;97333.81;5093029;28;19916;-86
2023/11/27 09:11:18;;;;;;;;;;;;;;;19.58;20.99;97329.28;5093317;28;19926;-86
2023/11/27 09:13:44;;;;;;;;;;;;;;;18.95;21.08;97336.53;5092905;28;19912;-86
2023/11/27 09:16:10;;;;;;;;;;;;;;;19.72;20.83;97331.06;5092591;28;19956;-86
2023/11/27 09:18:37;;;;;;;;;;;;;;;20.11;20.42;97330.38;5093204;28;19916;-86
2023/11/27 09:21:03;;;;;;;;;;;;;;;18.80;21.62;97339.91;5092022;28;19977;-86
2023/11/27 09:23:29;;;;;;;;;;;;;;;18.20;22.21;97337.78;5091607;28;19933;-86
2023/11/27 09:25:55;;;;;;;;;;;;;;;16.22;25.69;97340.97;5094274;28;19944;-86
2023/11/27 09:28:22;;;;;;;;;;;;;;;17.14;23.06;97333.88;5094095;28;19963;-86
2023/11/27 09:30:49;;;;;;;;;;;;;;;17.93;22.11;97334.88;5076268;28;19916;-86
2023/11/27 09:33:15;;;;;;;;;;;;;;;18.34;21.64;97332.84;5093456;28;20010;-86
2023/11/27 09:35:41;;;;;;;;;;;;;;;19.29;20.48;97331.69;5094246;28;19973;-87
2023/11/27 09:38:08;;;;;;;;;;;;;;;19.84;19.91;97327.66;5093996;28;19961;-86
2023/11/27 09:40:38;;;;;;;;;;;;;;;19.86;19.84;97331.59;5075365;28;20381;-86
2023/11/27 09:43:04;;;;;;;;;;;;;;;19.97;19.50;97335.00;5076226;28;19920;-86
2023/11/27 09:45:31;;;;;;;;;;;;;;;19.81;19.63;97331.31;5093760;28;19916;-86
2023/11/27 09:47:57;;;;;;;;;;;;;;;19.89;19.48;97325.19;5090193;28;19920;-86
2023/11/27 09:50:24;;;;;;;;;;;;;;;20.53;19.00;97324.03;5093586;28;19924;-86
2023/11/27 09:53:07;;;;;;;;;;;;;;;19.32;21.42;97324.50;5093615;28;19970;-86
2023/11/27 09:55:34;;;;;;;;;;;;;;;20.33;19.43;97323.22;5093764;28;19920;-87
2023/11/27 09:58:02;;;;;;;;;;;;;;;21.20;18.35;97308.69;5093399;28;19916;-87
2023/11/27 10:00:29;;;;;;;;;;;;;;;21.52;18.22;97316.34;5096529;28;19947;-86
2023/11/27 10:02:55;;;;;;;;;;;;;;;21.48;18.12;97315.63;5094222;28;19916;-87
2023/11/27 10:05:21;;;;;;;;;;;;;;;21.36;17.82;97311.50;5095041;28;19923;-87
2023/11/27 10:07:50;;;;;;;;;;;;;;;20.24;18.82;97306.28;5094986;28;19916;-86
2023/11/27 10:10:16;;;;;;;;;;;;;;;19.37;19.41;97301.75;5095083;28;20006;-86
2023/11/27 10:12:46;;;;;;;;;;;;;;;19.47;19.46;97294.47;5090254;28;20430;-87
2023/11/27 10:15:15;;;;;;;;;;;;;;;19.53;20.06;97296.38;5093705;28;19916;-86
2023/11/27 10:17:43;;;;;;;;;;;;;;;18.22;20.66;97297.28;5094646;28;19916;-87
2023/11/27 10:20:12;;;;;;;;;;;;;;;18.86;20.31;97288.97;5086509;28;19916;-87
2023/11/27 10:22:44;;;;;;;;;;;;;;;18.31;20.89;97291.22;5094383;28;20298;-87
2023/11/27 10:25:14;;;;;;;;;;;;;;;16.91;22.47;97291.22;5092646;28;20279;-89
2023/11/27 10:27:41;;;;;;;;;;;;;;;18.24;21.00;97294.88;5088758;28;19924;-89
2023/11/27 10:30:11;;;;;;;;;;;;;;;19.75;19.58;97278.06;5078886;28;20422;-87
2023/11/27 10:32:38;;;;;;;;;;;;;;;20.43;18.31;97277.63;5082555;28;20383;-86
2023/11/27 10:35:07;;;;;;;;;;;;;;;21.13;17.54;97266.97;5077971;28;19923;-86
2023/11/27 10:37:34;;;;;;;;;;;;;;;21.28;17.53;97269.00;5062958;28;19925;-86
2023/11/27 10:40:02;;;;;;;;;;;;;;;21.37;17.36;97274.00;5059347;28;19924;-85
2023/11/27 10:42:32;;;;;;;;;;;;;;;19.80;18.46;97272.03;5080132;28;20359;-86
2023/11/27 10:44:58;;;;;;;;;;;;;;;18.94;22.72;97275.75;5057698;28;19924;-86
2023/11/27 10:47:24;;;;;;;;;;;;;;;18.85;19.69;97278.28;5078834;28;19916;-84
2023/11/27 10:49:52;;;;;;;;;;;;;;;19.28;19.37;97263.31;5092993;28;19920;-86
2023/11/27 10:52:18;;;;;;;;;;;;;;;20.04;19.04;97272.00;5094099;28;19916;-86
2023/11/27 10:54:49;;;;;;;;;;;;;;;20.89;18.41;97259.91;5087309;28;19967;-87
2023/11/27 10:57:17;;;;;;;;;;;;;;;21.75;17.10;97252.69;5084840;28;20395;-85
2023/11/27 10:59:44;;;;;;;;;;;;;;;21.94;16.95;97254.59;5093218;28;19917;-85
2023/11/27 11:02:13;;;;;;;;;;;;;;;21.87;18.08;97249.19;5083506;28;19924;-87
2023/11/27 11:04:52;;;;;;;;;;;;;;;21.65;17.45;97255.75;5082276;28;19916;-86
2023/11/27 11:07:19;;;;;;;;;;;;;;;19.33;19.75;97250.91;5087079;28;20320;-86
2023/11/27 11:09:47;;;;;;;;;;;;;;;18.62;19.90;97248.41;5093545;28;19922;-85
2023/11/27 11:12:16;;;;;;;;;;;;;;;19.47;19.21;97263.84;5089453;28;19944;-84
2023/11/27 11:14:44;;;;;;;;;;;;;;;20.64;18.34;97255.69;5085197;28;20391;-86
2023/11/27 11:17:25;;;;;;;;;;;;;;;21.62;17.20;97242.66;5092081;28;20418;-85
2023/11/27 11:20:13;;;;;;;;;;;;;;;21.59;17.08;97241.53;5074586;28;19916;-86
2023/11/27 11:23:06;;;;;;;;;;;;;;;21.40;17.36;97234.00;5033969;28;19928;-85
2023/11/27 11:25:38;;;;;;;;;;;;;;;22.07;16.82;97234.31;5034513;28;19942;-85
2023/11/27 11:28:15;;;;;;;;;;;;;;;22.09;16.74;97226.28;5078797;28;19959;-85
2023/11/27 11:30:42;;;;;;;;;;;;;;;20.78;17.76;97229.47;5093386;28;19956;-85
2023/11/27 11:33:18;;;;;;;;;;;;;;;21.31;17.35;97233.84;5093376;28;19962;-85
2023/11/27 11:35:50;;;;;;;;;;;;;;;21.74;16.92;97227.97;5093630;28;20371;-84
2023/11/27 11:38:19;;;;;;;;;;;;;;;21.04;18.90;97230.47;5093431;28;20364;-85
2023/11/27 11:40:51;;;;;;;;;;;;;;;18.89;20.02;97226.94;5077998;28;20336;-85
2023/11/27 11:43:18;;;;;;;;;;;;;;;18.39;20.64;97218.47;5073083;28;20307;-85
2023/11/27 11:45:46;;;;;;;;;;;;;;;18.72;19.92;97216.84;5085468;28;20299;-85
2023/11/27 11:48:14;;;;;;;;;;;;;;;19.06;19.73;97217.56;5093317;28;19916;-85
2023/11/27 11:50:41;;;;;;;;;;;;;;;19.39;19.11;97223.41;5093232;28;19920;-85
2023/11/27 11:53:22;;;;;;;;;;;;;;;18.06;22.82;97210.97;5093592;28;19924;-85
2023/11/27 11:55:50;;;;;;;;;;;;;;;19.99;18.90;97200.84;5093017;28;20382;-84
2023/11/27 11:58:19;;;;;;;;;;;;;;;19.55;20.47;97206.84;5075201;28;20322;-84
2023/11/27 12:00:46;;;;;;;;;;;;;;;19.07;19.48;97205.22;5093250;28;19916;-85
2023/11/27 12:03:18;;;;;;;;;;;;;;;20.41;18.45;97190.84;5096802;28;20391;-85
2023/11/27 12:05:50;;;;;;;;;;;;;;;20.77;18.38;97191.63;5097134;28;20387;-85
2023/11/27 12:08:17;;;;;;;;;;;;;;;21.09;17.61;97183.34;5097267;28;19976;-85
2023/11/27 12:10:43;;;;;;;;;;;;;;;21.47;17.58;97180.03;5096752;28;19923;-85
2023/11/27 12:13:10;;;;;;;;;;;;;;;21.63;17.21;97171.63;5094556;28;19916;-85
2023/11/27 12:15:36;;;;;;;;;;;;;;;19.28;20.55;97182.59;5076441;28;19916;-85
2023/11/27 12:18:08;;;;;;;;;;;;;;;20.11;18.88;97171.53;5076551;28;20002;-84
2023/11/27 12:20:37;;;;;;;;;;;;;;;20.90;17.88;97175.78;5095618;28;19962;-84
2023/11/27 12:23:04;;;;;;;;;;;;;;;21.28;17.44;97173.31;5096635;28;19931;-84
2023/11/27 12:25:30;;;;;;;;;;;;;;;19.89;18.71;97180.31;5096418;28;19927;-85
2023/11/27 12:27:56;;;;;;;;;;;;;;;19.71;18.94;97179.88;5096709;28;20011;-84
2023/11/27 12:30:24;;;;;;;;;;;;;;;18.74;19.91;97174.75;5092023;28;20254;-84
2023/11/27 12:32:50;;;;;;;;;;;;;;;18.84;19.96;97176.56;5076341;28;20003;-85
2023/11/27 12:35:17;;;;;;;;;;;;;;;19.42;19.54;97170.47;5076574;28;20015;-85
2023/11/27 12:37:44;;;;;;;;;;;;;;;19.48;19.84;97177.13;5096369;28;19969;-85
2023/11/27 12:40:17;;;;;;;;;;;;;;;20.12;18.78;97176.69;5096297;28;20022;-85
2023/11/27 12:42:45;;;;;;;;;;;;;;;20.11;18.65;97168.75;5096646;28;20330;-84
2023/11/27 12:45:12;;;;;;;;;;;;;;;21.00;17.72;97162.81;5096540;28;20283;-84
2023/11/27 12:47:38;;;;;;;;;;;;;;;20.57;18.46;97157.44;5081143;28;19924;-85